• Join FlightAware (Why Join?)
  • Login
  • US Flag 
08:50PM EDT


 

Airport Tracker/Info


-or-


 

Live Flight TrackerFlight Track Log ✈ ASA200 ✈ 24-Apr-2013 ✈ KSEA - KSJC

Flight Track Log - Related Links

Times and Time Zones

All times are in EDT time to prevent confusion due to time zone crossing. See the ASA200 flight status page for this flight to view local times or setup timezone preferences in your user account.

Time Position Orientation Groundspeed Altitude Reporting Facility
EDT Latitude Longitude Course Direction KTS MPH feet Rate Location/Type
09:08AM 47.4656 -122.3069 359° North 172 198 1,500  Level Seattle Center
09:09AM 47.4803 -122.3072 359° North 164 189 2,400 1,800 Climbing Seattle Center
09:09AM 47.4992 -122.3081 358° North 187 215 2,800 2,160 Climbing Seattle Center
09:10AM 47.5450 -122.3100 358° North 216 249 4,600 2,640 Climbing Seattle Center
09:11AM 47.6044 -122.3661 328° Northwest 260 299 7,500 2,700 Climbing Seattle Center
09:12AM 47.6100 -122.4775 274° West 283 326 10,000 2,280 Climbing Seattle Center
09:13AM 47.5500 -122.5747 228° Southwest 329 379 12,200 2,280 Climbing Seattle Center
09:14AM 47.4889 -122.6683 226° Southwest 342 394 14,700 2,580 Climbing Seattle Center
09:15AM 47.4189 -122.7753 226° Southwest 363 418 17,500 2,520 Climbing Seattle Center
09:16AM 47.3461 -122.8864 226° Southwest 378 435 19,900 1,980 Climbing Seattle Center
09:17AM 47.2686 -123.0033 226° Southwest 399 459 21,600 1,920 Climbing Seattle Center
09:18AM 47.1764 -123.1153 220° Southwest 431 496 23,800 2,400 Climbing Seattle Center
09:19AM 47.0497 -123.2167 209° Southwest 446 513 26,500 2,100 Climbing Seattle Center
09:20AM 46.9225 -123.2144 179° South 462 532 28,100 1,500 Climbing Seattle Center
09:21AM 46.7911 -123.2097 179° South 476 548 29,600 1,380 Climbing Seattle Center
09:22AM 46.6583 -123.2094 180° South 482 555 30,900 1,320 Climbing Seattle Center
09:23AM 46.5222 -123.2069 179° South 496 571 32,300 1,440 Climbing Seattle Center
09:24AM 46.3847 -123.2008 178° South 497 572 33,900 1,380 Climbing Seattle Center
09:25AM 46.2469 -123.1953 178° South 496 571 35,200 1,140 Climbing Seattle Center
09:26AM 46.1089 -123.1925 179° South 498 573 36,300 1,080 Climbing Seattle Center
09:27AM 45.9703 -123.1861 178° South 498 573 37,400 1,140 Climbing Seattle Center
09:28AM 45.8325 -123.1811 179° South 495 570 38,700 780 Climbing Seattle Center
09:29AM 45.6967 -123.1756 178° South 489 563 39,000 120 Climbing Seattle Center
09:30AM 45.5619 -123.1717 179° South 486 559 39,000  Level Seattle Center
09:31AM 45.4258 -123.1650 178° South 490 564 39,000  Level Seattle Center
09:32AM 45.2928 -123.1617 179° South 480 552 39,000  Level Seattle Center
09:33AM 45.1597 -123.1578 179° South 475 547 39,000  Level Seattle Center
09:34AM 45.0256 -123.1517 178° South 477 549 39,000  Level Seattle Center
09:35AM 44.8917 -123.1489 179° South 476 548 39,000  Level Seattle Center
09:36AM 44.7569 -123.1431 178° South 478 550 39,000  Level Seattle Center
09:37AM 44.6236 -123.1389 179° South 478 550 39,000  Level Seattle Center
09:38AM 44.4881 -123.1344 179° South 484 557 39,000  Level Seattle Center
09:39AM 44.3558 -123.1311 179° South 477 549 39,000  Level Seattle Center
09:40AM 44.2256 -123.1231 177° South 472 543 39,000  Level Seattle Center
09:41AM 44.0653 -123.1192 179° South 478 550 39,000  Level Seattle Center
09:42AM 43.9419 -123.1150 179° South 477 549 39,000  Level Seattle Center
09:43AM 43.8100 -123.1108 179° South 474 545 39,000  Level Seattle Center
09:44AM 43.6775 -123.1056 178° South 475 547 39,000  Level Seattle Center
09:45AM 43.5456 -123.1011 179° South 474 545 39,000  Level Seattle Center
09:46AM 43.4139 -123.0950 178° South 474 545 39,000  Level Seattle Center
09:47AM 43.2822 -123.0908 179° South 473 544 39,000  Level Seattle Center
09:48AM 43.1508 -123.0853 178° South 473 544 39,000  Level Seattle Center
09:49AM 43.0197 -123.0792 178° South 472 543 39,000  Level Seattle Center
09:50AM 42.8878 -123.0781 180° South 473 544 39,000  Level Seattle Center
09:51AM 42.7561 -123.0717 178° South 474 545 39,000  Level Seattle Center
09:52AM 42.6058 -123.0681 179° South 472 543 39,000  Level Seattle Center
09:53AM 42.4747 -123.0622 178° South 473 544 39,000  Level Seattle Center
09:54AM 42.3431 -123.0586 179° South 474 545 39,000  Level Seattle Center
09:55AM 42.2125 -123.0544 179° South 472 543 39,000  Level Seattle Center
09:56AM 42.0814 -123.0503 179° South 473 544 39,000  Level Seattle Center
09:57AM 41.9506 -123.0481 179° South 472 543 39,000  Level Seattle Center
09:58AM 41.8211 -123.0431 178° South 469 540 39,000  Level Seattle Center
09:59AM 41.6903 -123.0397 179° South 472 543 39,000  Level Seattle Center
10:00AM 41.5592 -123.0361 179° South 473 544 39,000  Level Seattle Center
10:01AM 41.4283 -123.0306 178° South 472 543 39,000  Level Seattle Center
10:02AM 41.2889 -123.0236 178° South 474 545 39,000  Level Seattle Center
10:03AM 41.1578 -123.0167 178° South 473 544 39,000  Level Seattle Center
10:04AM 41.0264 -123.0111 178° South 472 543 39,000  Level Seattle Center
10:06AM 40.8936 -123.0042 178° South 475 547 39,000  Level Seattle Center
10:07AM 40.7586 -122.9983 178° South 472 543 39,000  Level Oakland Center
10:08AM 40.6281 -122.9914 178° South 472 543 39,000  Level Oakland Center
10:09AM 40.4708 -122.9836 178° South 475 547 39,000  Level Oakland Center
10:10AM 40.3411 -122.9783 178° South 471 542 39,000  Level Oakland Center
10:11AM 40.2142 -122.9700 177° South 465 535 39,000  Level Oakland Center
10:12AM 40.0875 -122.9533 174° South 462 532 39,000  Level Oakland Center
10:13AM 39.9619 -122.9361 174° South 459 528 39,000  Level Oakland Center
10:14AM 39.8378 -122.9206 175° South 455 524 39,000  Level Oakland Center
10:15AM 39.7125 -122.9025 174° South 457 526 39,000  Level Oakland Center
10:16AM 39.5886 -122.8875 175° South 452 520 39,000  Level Oakland Center
10:17AM 39.4392 -122.8675 174° South 453 521 39,000 -420 Level Oakland Center
10:18AM 39.3167 -122.8519 174° South 447 514 38,200 -900 Descending Oakland Center
10:19AM 39.1931 -122.8347 174° South 454 522 37,200 -960 Descending Oakland Center
10:20AM 39.0683 -122.8186 174° South 453 521 36,300 -1,020 Descending Oakland Center
10:21AM 38.9336 -122.8014 174° South 455 524 35,200 -1,320 Descending Oakland Center
10:22AM 38.8094 -122.7853 174° South 451 519 33,600 -2,100 Descending Oakland Center
10:23AM 38.6828 -122.7703 175° South 455 524 31,000 -2,400 Descending Oakland Center
10:24AM 38.5600 -122.7561 175° South 447 514 28,800 -2,160 Descending Oakland Center
10:25AM 38.4406 -122.7406 174° South 436 502 26,700 -2,100 Descending Oakland Center
10:26AM 38.3250 -122.7258 174° South 423 487 24,600 -2,040 Descending Oakland Center
10:27AM 38.2125 -122.7125 175° South 408 470 22,600 -1,920 Descending Oakland Center
10:28AM 38.1050 -122.6989 174° South 394 453 20,700 -2,100 Descending Oakland Center
10:29AM 37.9797 -122.6850 175° South 383 441 18,400 -2,040 Descending Oakland Center
10:30AM 37.8817 -122.6594 168° South 379 436 16,600 -2,160 Descending Oakland Center
10:31AM 37.8167 -122.5833 137° Southeast 374 430 14,600 -2,160 Descending Northern Cal TRACON
10:32AM 37.7500 -122.5000 135° Southeast 356 410 12,900 -1,320 Descending Northern Cal TRACON
10:33AM 37.6833 -122.4333 142° Southeast 329 379 12,200 -480 Descending Northern Cal TRACON
10:34AM 37.6167 -122.3833 149° Southeast 299 344 12,000 -180 Descending Northern Cal TRACON
10:34AM 37.5928 -122.3633 146° Southeast 298 343 12,000 -720 Level Oakland Center
10:35AM 37.5119 -122.3181 156° South 269 310 11,000 -600 Descending Oakland Center
10:36AM 37.4475 -122.2817 156° South 257 296 10,800 -660 Descending Oakland Center
10:37AM 37.3939 -122.2281 142° Southeast 258 297 9,700 -1,260 Descending Oakland Center
10:38AM 37.3556 -122.1594 125° Southeast 244 281 8,300 -1,200 Descending Oakland Center
10:39AM 37.3169 -122.0944 127° Southeast 235 270 7,300 -1,080 Descending Oakland Center
10:40AM 37.2822 -122.0311 125° Southeast 224 258 6,100 -660 Descending Oakland Center
10:41AM 37.2472 -121.9736 127° Southeast 211 243 6,000 -60 Descending Oakland Center
10:42AM 37.2125 -121.9136 126° Southeast 213 245 6,000  Level Oakland Center
10:43AM 37.1733 -121.8639 135° Southeast 204 235 6,000  Level Oakland Center
10:44AM 37.1350 -121.8158 135° Southeast 197 227 6,000 -240 Level Oakland Center
10:45AM 37.1417 -121.7444 83° East 201 231 5,600 -780 Descending Oakland Center
10:46AM 37.1839 -121.7364 North 202 232 4,500 -1,080 Descending Oakland Center
10:47AM 37.2231 -121.7800 318° Northwest 194 223 3,400 -960 Descending Oakland Center
10:48AM 37.2586 -121.8186 319° Northwest 179 206 2,600 -840 Descending Oakland Center
10:49AM 37.2911 -121.8536 319° Northwest 167 192 1,800 -840 Descending Oakland Center
10:50AM 37.3231 -121.8861 321° Northwest 156 180 900 -840 Descending Oakland Center
10:51AM 37.3519 -121.9189 318° Northwest 148 170 100 -840 Descending Oakland Center